BAW292 EGCC-LFML
Flight info
| Callsign | BAW292 |
|---|---|
| Flight time | 1h 47m |
| Altitude | 35000 |
| Route | LISTO P18 TELBA L151 MID/N0449F370 UL612 RESMI UM728 KETEX DCT KOTIS DCT KUKOR DCT UTUVA/N0450F290 DCT LERGA |
| Aircraft | A319/M-SDE3FGHIRWY/LB1 |
Departure
| Time | 2026-05-06 16:28 |
|---|---|
| Airport | Manchester Airport (EGCC) |
Arrival
| Time | 2026-05-06 18:15 |
|---|---|
| Airport | Marseille Provence Airport (LFML) |
| Time | Latitude | Longitude | Altitude | Speed | Heading |
|---|---|---|---|---|---|
| 2026-05-06 16:05 | 53.36286 | -2.27840 | 233 ft | 0 kts | 195° |
| 2026-05-06 16:17 | 53.36288 | -2.27839 | 233 ft | 2 kts | 195° |
| 2026-05-06 16:17 | 53.36313 | -2.27828 | 234 ft | 4 kts | 196° |
| 2026-05-06 16:17 | 53.36333 | -2.27817 | 236 ft | 4 kts | 221° |
| 2026-05-06 16:18 | 53.36342 | -2.27782 | 234 ft | 4 kts | 278° |
| 2026-05-06 16:18 | 53.36337 | -2.27742 | 233 ft | 4 kts | 285° |
| 2026-05-06 16:18 | 53.36335 | -2.27727 | 233 ft | 0 kts | 284° |
| 2026-05-06 16:20 | 53.36336 | -2.27737 | 233 ft | 3 kts | 285° |
| 2026-05-06 16:20 | 53.36350 | -2.27789 | 236 ft | 7 kts | 303° |
| 2026-05-06 16:21 | 53.36386 | -2.27860 | 233 ft | 9 kts | 306° |
| 2026-05-06 16:21 | 53.36375 | -2.27963 | 233 ft | 11 kts | 228° |
| 2026-05-06 16:21 | 53.36314 | -2.28052 | 233 ft | 13 kts | 211° |
| 2026-05-06 16:21 | 53.36224 | -2.28084 | 233 ft | 14 kts | 172° |
| 2026-05-06 16:22 | 53.36146 | -2.27984 | 233 ft | 15 kts | 135° |
| 2026-05-06 16:22 | 53.36059 | -2.27901 | 233 ft | 15 kts | 196° |
| 2026-05-06 16:22 | 53.35970 | -2.27867 | 235 ft | 15 kts | 144° |
| 2026-05-06 16:22 | 53.35880 | -2.27849 | 233 ft | 14 kts | 186° |
| 2026-05-06 16:23 | 53.35780 | -2.27868 | 233 ft | 13 kts | 186° |
| 2026-05-06 16:23 | 53.35684 | -2.27886 | 233 ft | 15 kts | 186° |
| 2026-05-06 16:23 | 53.35592 | -2.27969 | 233 ft | 17 kts | 230° |
| 2026-05-06 16:23 | 53.35509 | -2.28114 | 233 ft | 17 kts | 212° |
| 2026-05-06 16:24 | 53.35396 | -2.28167 | 233 ft | 18 kts | 185° |
| 2026-05-06 16:24 | 53.35273 | -2.28233 | 234 ft | 20 kts | 212° |
| 2026-05-06 16:24 | 53.35184 | -2.28395 | 233 ft | 19 kts | 231° |
| 2026-05-06 16:24 | 53.35100 | -2.28569 | 233 ft | 16 kts | 231° |
| 2026-05-06 16:25 | 53.35033 | -2.28706 | 233 ft | 16 kts | 229° |
| 2026-05-06 16:25 | 53.34951 | -2.28849 | 233 ft | 18 kts | 226° |
| 2026-05-06 16:25 | 53.34869 | -2.28993 | 233 ft | 15 kts | 225° |
| 2026-05-06 16:25 | 53.34805 | -2.29067 | 235 ft | 2 kts | 196° |
| 2026-05-06 16:26 | 53.34801 | -2.29068 | 234 ft | 2 kts | 195° |
| 2026-05-06 16:26 | 53.34761 | -2.29074 | 233 ft | 9 kts | 176° |
| 2026-05-06 16:26 | 53.34692 | -2.29029 | 233 ft | 12 kts | 143° |
| 2026-05-06 16:27 | 53.34711 | -2.28869 | 233 ft | 33 kts | 50° |
| 2026-05-06 16:27 | 53.34989 | -2.28295 | 235 ft | 92 kts | 51° |
| 2026-05-06 16:27 | 53.35502 | -2.27226 | 240 ft | 143 kts | 51° |
| 2026-05-06 16:27 | 53.36204 | -2.25791 | 437 ft | 171 kts | 50° |
| 2026-05-06 16:28 | 53.36992 | -2.24237 | 1173 ft | 172 kts | 51° |
| 2026-05-06 16:28 | 53.37583 | -2.22460 | 1762 ft | 186 kts | 76° |
| 2026-05-06 16:28 | 53.37419 | -2.20222 | 2047 ft | 216 kts | 116° |
| 2026-05-06 16:28 | 53.36298 | -2.18347 | 2483 ft | 244 kts | 144° |
| 2026-05-06 16:29 | 53.34758 | -2.16931 | 3208 ft | 261 kts | 164° |
| 2026-05-06 16:29 | 53.32904 | -2.16876 | 4186 ft | 267 kts | 186° |
| 2026-05-06 16:29 | 53.31061 | -2.17229 | 4772 ft | 271 kts | 185° |
| 2026-05-06 16:29 | 53.29164 | -2.17564 | 4993 ft | 272 kts | 185° |
| 2026-05-06 16:30 | 53.27294 | -2.17867 | 5858 ft | 274 kts | 185° |
| 2026-05-06 16:30 | 53.26657 | -2.17966 | 6194 ft | 274 kts | 185° |
| 2026-05-06 16:30 | 53.23431 | -2.18462 | 7669 ft | 282 kts | 186° |
| 2026-05-06 16:30 | 53.21463 | -2.18767 | 8540 ft | 286 kts | 186° |
| 2026-05-06 16:31 | 53.19491 | -2.19079 | 9404 ft | 290 kts | 187° |
| 2026-05-06 16:31 | 53.18130 | -2.19297 | 9969 ft | 293 kts | 187° |
| 2026-05-06 16:31 | 53.16049 | -2.19634 | 10409 ft | 312 kts | 187° |
| 2026-05-06 16:31 | 53.13798 | -2.20003 | 10637 ft | 336 kts | 187° |
| 2026-05-06 16:32 | 53.10641 | -2.20507 | 11298 ft | 350 kts | 187° |
| 2026-05-06 16:32 | 53.08203 | -2.20885 | 12002 ft | 354 kts | 187° |
| 2026-05-06 16:32 | 53.05738 | -2.21261 | 12718 ft | 358 kts | 187° |
| 2026-05-06 16:32 | 53.04050 | -2.21519 | 13206 ft | 360 kts | 187° |
| 2026-05-06 16:33 | 53.01544 | -2.21903 | 13898 ft | 364 kts | 187° |
| 2026-05-06 16:33 | 52.99013 | -2.22296 | 14526 ft | 367 kts | 187° |
| 2026-05-06 16:33 | 52.96462 | -2.22696 | 15164 ft | 370 kts | 187° |
| 2026-05-06 16:34 | 52.91301 | -2.23494 | 16434 ft | 376 kts | 187° |
| 2026-05-06 16:34 | 52.88686 | -2.23894 | 17069 ft | 379 kts | 187° |
| 2026-05-06 16:34 | 52.86053 | -2.24363 | 17697 ft | 381 kts | 192° |
| 2026-05-06 16:34 | 52.83464 | -2.25311 | 18332 ft | 383 kts | 195° |
| 2026-05-06 16:35 | 52.80870 | -2.26317 | 18894 ft | 385 kts | 195° |
| 2026-05-06 16:35 | 52.78241 | -2.27332 | 19479 ft | 388 kts | 195° |
| 2026-05-06 16:35 | 52.74748 | -2.28675 | 20242 ft | 391 kts | 195° |
| 2026-05-06 16:35 | 52.72952 | -2.29364 | 20638 ft | 393 kts | 195° |
| 2026-05-06 16:36 | 52.70252 | -2.30125 | 21185 ft | 397 kts | 186° |
| 2026-05-06 16:36 | 52.67467 | -2.30028 | 21720 ft | 403 kts | 175° |
| 2026-05-06 16:36 | 52.64720 | -2.29008 | 22236 ft | 408 kts | 163° |
| 2026-05-06 16:36 | 52.62121 | -2.27082 | 22725 ft | 414 kts | 152° |
| 2026-05-06 16:37 | 52.59699 | -2.24473 | 23225 ft | 417 kts | 148° |
| 2026-05-06 16:37 | 52.57283 | -2.21816 | 23695 ft | 420 kts | 148° |
| 2026-05-06 16:37 | 52.54847 | -2.19149 | 24099 ft | 422 kts | 148° |
| 2026-05-06 16:37 | 52.52390 | -2.16470 | 24497 ft | 424 kts | 148° |
| 2026-05-06 16:38 | 52.49926 | -2.13791 | 24899 ft | 426 kts | 148° |
| 2026-05-06 16:38 | 52.47445 | -2.11099 | 25303 ft | 429 kts | 148° |
| 2026-05-06 16:38 | 52.44958 | -2.08400 | 25729 ft | 431 kts | 148° |
| 2026-05-06 16:38 | 52.42460 | -2.05687 | 26115 ft | 433 kts | 148° |
| 2026-05-06 16:39 | 52.39936 | -2.02953 | 26528 ft | 435 kts | 149° |
| 2026-05-06 16:39 | 52.37410 | -2.00223 | 26925 ft | 437 kts | 149° |
| 2026-05-06 16:39 | 52.34865 | -1.97472 | 27307 ft | 439 kts | 149° |
| 2026-05-06 16:39 | 52.32309 | -1.94710 | 27698 ft | 441 kts | 149° |
| 2026-05-06 16:40 | 52.29744 | -1.91947 | 28082 ft | 442 kts | 149° |
| 2026-05-06 16:40 | 52.27168 | -1.89180 | 28459 ft | 444 kts | 149° |
| 2026-05-06 16:40 | 52.24586 | -1.86407 | 28816 ft | 446 kts | 149° |
| 2026-05-06 16:40 | 52.21984 | -1.83612 | 29170 ft | 448 kts | 149° |
| 2026-05-06 16:41 | 52.19382 | -1.80822 | 29538 ft | 449 kts | 149° |
| 2026-05-06 16:41 | 52.16764 | -1.78025 | 29881 ft | 451 kts | 149° |
| 2026-05-06 16:41 | 52.14122 | -1.75212 | 30198 ft | 453 kts | 149° |
| 2026-05-06 16:41 | 52.11493 | -1.72411 | 30481 ft | 454 kts | 149° |
| 2026-05-06 16:42 | 52.08851 | -1.69593 | 30887 ft | 453 kts | 149° |
| 2026-05-06 16:42 | 52.06213 | -1.66784 | 31270 ft | 452 kts | 149° |
| 2026-05-06 16:42 | 52.03590 | -1.63994 | 31630 ft | 452 kts | 149° |
| 2026-05-06 16:42 | 52.00960 | -1.61200 | 32005 ft | 451 kts | 149° |
| 2026-05-06 16:43 | 51.98332 | -1.58418 | 32381 ft | 450 kts | 149° |
| 2026-05-06 16:43 | 51.95711 | -1.55649 | 32760 ft | 450 kts | 149° |
| 2026-05-06 16:43 | 51.93099 | -1.52897 | 33144 ft | 449 kts | 149° |
| 2026-05-06 16:43 | 51.90468 | -1.50130 | 33537 ft | 449 kts | 149° |
| 2026-05-06 16:44 | 51.87850 | -1.47380 | 33953 ft | 448 kts | 149° |
| 2026-05-06 16:44 | 51.85241 | -1.44640 | 34297 ft | 447 kts | 149° |
| 2026-05-06 16:44 | 51.82640 | -1.41910 | 34606 ft | 447 kts | 149° |
| 2026-05-06 16:44 | 51.80031 | -1.39175 | 34900 ft | 447 kts | 149° |
| 2026-05-06 16:45 | 51.77422 | -1.36443 | 34982 ft | 446 kts | 149° |
| 2026-05-06 16:45 | 51.72226 | -1.31010 | 35005 ft | 444 kts | 149° |
| 2026-05-06 16:46 | 51.67045 | -1.25605 | 34997 ft | 443 kts | 149° |
| 2026-05-06 16:46 | 51.61867 | -1.20231 | 35002 ft | 442 kts | 149° |
| 2026-05-06 16:47 | 51.56704 | -1.14878 | 35004 ft | 441 kts | 149° |
| 2026-05-06 16:47 | 51.51588 | -1.09586 | 35001 ft | 441 kts | 149° |
| 2026-05-06 16:48 | 51.46428 | -1.04275 | 34993 ft | 441 kts | 149° |
| 2026-05-06 16:48 | 51.41267 | -0.98966 | 34990 ft | 441 kts | 149° |
| 2026-05-06 16:49 | 51.36097 | -0.93665 | 34989 ft | 441 kts | 149° |
| 2026-05-06 16:49 | 51.30935 | -0.88402 | 34982 ft | 441 kts | 149° |
| 2026-05-06 16:50 | 51.25768 | -0.83132 | 34982 ft | 441 kts | 149° |
| 2026-05-06 16:50 | 51.20592 | -0.77880 | 34980 ft | 441 kts | 149° |
| 2026-05-06 16:51 | 51.15415 | -0.72631 | 34978 ft | 441 kts | 149° |
| 2026-05-06 16:51 | 51.10239 | -0.67383 | 34979 ft | 441 kts | 149° |
| 2026-05-06 16:52 | 51.05050 | -0.62146 | 34970 ft | 441 kts | 148° |
| 2026-05-06 16:52 | 50.99926 | -0.56783 | 34969 ft | 441 kts | 147° |
| 2026-05-06 16:53 | 50.94844 | -0.51288 | 34967 ft | 442 kts | 147° |
| 2026-05-06 16:53 | 50.89764 | -0.45827 | 34963 ft | 441 kts | 147° |
| 2026-05-06 16:54 | 50.84666 | -0.40413 | 34965 ft | 441 kts | 147° |
| 2026-05-06 16:54 | 50.79568 | -0.35027 | 34966 ft | 441 kts | 147° |
| 2026-05-06 16:55 | 50.74468 | -0.29654 | 34972 ft | 440 kts | 147° |
| 2026-05-06 16:55 | 50.69372 | -0.24292 | 34971 ft | 440 kts | 147° |
| 2026-05-06 16:56 | 50.64278 | -0.18951 | 35018 ft | 440 kts | 147° |
| 2026-05-06 16:56 | 50.61729 | -0.16279 | 35282 ft | 440 kts | 147° |
| 2026-05-06 16:56 | 50.59183 | -0.13613 | 35571 ft | 440 kts | 147° |
| 2026-05-06 16:56 | 50.56598 | -0.10913 | 35844 ft | 440 kts | 147° |
| 2026-05-06 16:57 | 50.54047 | -0.08251 | 36119 ft | 439 kts | 147° |
| 2026-05-06 16:57 | 50.51535 | -0.05634 | 36389 ft | 439 kts | 147° |
| 2026-05-06 16:57 | 50.48988 | -0.02989 | 36661 ft | 439 kts | 147° |
| 2026-05-06 16:57 | 50.46435 | -0.00341 | 36902 ft | 440 kts | 147° |
| 2026-05-06 16:58 | 50.43885 | 0.02304 | 36983 ft | 439 kts | 147° |
| 2026-05-06 16:58 | 50.38788 | 0.07580 | 36981 ft | 438 kts | 147° |
| 2026-05-06 16:59 | 50.33708 | 0.12824 | 36976 ft | 437 kts | 147° |
| 2026-05-06 16:59 | 50.28635 | 0.18058 | 36982 ft | 436 kts | 147° |
| 2026-05-06 17:00 | 50.23567 | 0.23274 | 36973 ft | 435 kts | 147° |
| 2026-05-06 17:00 | 50.18506 | 0.28460 | 36984 ft | 435 kts | 147° |
| 2026-05-06 17:01 | 50.13448 | 0.33658 | 36973 ft | 435 kts | 147° |
| 2026-05-06 17:01 | 50.08401 | 0.38842 | 36980 ft | 434 kts | 147° |
| 2026-05-06 17:02 | 50.03364 | 0.44004 | 36982 ft | 433 kts | 147° |
| 2026-05-06 17:02 | 49.98324 | 0.49143 | 36985 ft | 433 kts | 147° |
| 2026-05-06 17:03 | 49.93288 | 0.54277 | 36977 ft | 432 kts | 147° |
| 2026-05-06 17:03 | 49.88258 | 0.59383 | 36978 ft | 432 kts | 147° |
| 2026-05-06 17:04 | 49.83400 | 0.64857 | 36970 ft | 432 kts | 141° |
| 2026-05-06 17:04 | 49.78729 | 0.70730 | 36969 ft | 432 kts | 142° |
| 2026-05-06 17:05 | 49.74062 | 0.76596 | 36974 ft | 432 kts | 141° |
| 2026-05-06 17:05 | 49.69397 | 0.82448 | 36972 ft | 432 kts | 142° |
| 2026-05-06 17:06 | 49.64729 | 0.88277 | 36968 ft | 432 kts | 142° |
| 2026-05-06 17:06 | 49.60052 | 0.94118 | 36974 ft | 432 kts | 141° |
| 2026-05-06 17:07 | 49.55377 | 0.99951 | 36972 ft | 433 kts | 142° |
| 2026-05-06 17:07 | 49.50694 | 1.05761 | 36979 ft | 433 kts | 142° |
| 2026-05-06 17:08 | 49.45997 | 1.11570 | 36971 ft | 433 kts | 142° |
| 2026-05-06 17:08 | 49.41292 | 1.17368 | 36968 ft | 434 kts | 142° |
| 2026-05-06 17:09 | 49.36575 | 1.23174 | 36971 ft | 434 kts | 142° |
| 2026-05-06 17:09 | 49.31862 | 1.28969 | 36977 ft | 435 kts | 142° |
| 2026-05-06 17:10 | 49.27133 | 1.34759 | 36969 ft | 435 kts | 142° |
| 2026-05-06 17:10 | 49.22401 | 1.40537 | 36962 ft | 436 kts | 142° |
| 2026-05-06 17:11 | 49.17667 | 1.46314 | 36959 ft | 436 kts | 142° |
| 2026-05-06 17:11 | 49.13728 | 1.51119 | 36957 ft | 436 kts | 142° |
| 2026-05-06 17:12 | 49.08991 | 1.56885 | 36953 ft | 436 kts | 142° |
| 2026-05-06 17:12 | 49.04240 | 1.62630 | 36942 ft | 436 kts | 142° |
| 2026-05-06 17:13 | 48.99489 | 1.68361 | 36940 ft | 436 kts | 142° |
| 2026-05-06 17:13 | 48.94735 | 1.74083 | 36931 ft | 436 kts | 142° |
| 2026-05-06 17:14 | 48.89976 | 1.79800 | 36926 ft | 436 kts | 142° |
| 2026-05-06 17:14 | 48.85200 | 1.85515 | 36930 ft | 437 kts | 142° |
| 2026-05-06 17:15 | 48.80428 | 1.91215 | 36935 ft | 437 kts | 142° |
| 2026-05-06 17:15 | 48.75789 | 1.96751 | 36938 ft | 438 kts | 142° |
| 2026-05-06 17:16 | 48.70996 | 2.02461 | 36938 ft | 438 kts | 142° |
| 2026-05-06 17:16 | 48.66198 | 2.08161 | 36942 ft | 439 kts | 142° |
| 2026-05-06 17:17 | 48.61396 | 2.13838 | 36938 ft | 439 kts | 142° |
| 2026-05-06 17:17 | 48.56318 | 2.18902 | 36934 ft | 438 kts | 156° |
| 2026-05-06 17:18 | 48.50508 | 2.21606 | 36920 ft | 437 kts | 166° |
| 2026-05-06 17:18 | 48.44606 | 2.23845 | 36910 ft | 438 kts | 166° |
| 2026-05-06 17:19 | 48.38688 | 2.26094 | 36922 ft | 439 kts | 166° |
| 2026-05-06 17:19 | 48.32768 | 2.28334 | 36905 ft | 439 kts | 166° |
| 2026-05-06 17:20 | 48.26826 | 2.30575 | 36911 ft | 440 kts | 166° |
| 2026-05-06 17:20 | 48.20918 | 2.32903 | 36912 ft | 440 kts | 165° |
| 2026-05-06 17:21 | 48.14993 | 2.35300 | 36917 ft | 441 kts | 165° |
| 2026-05-06 17:21 | 48.09098 | 2.37863 | 36924 ft | 441 kts | 162° |
| 2026-05-06 17:22 | 48.03291 | 2.40823 | 36927 ft | 442 kts | 161° |
| 2026-05-06 17:22 | 47.97477 | 2.43853 | 36940 ft | 442 kts | 162° |
| 2026-05-06 17:23 | 47.91651 | 2.46782 | 36928 ft | 442 kts | 162° |
| 2026-05-06 17:23 | 47.85810 | 2.49646 | 36936 ft | 442 kts | 162° |
| 2026-05-06 17:24 | 47.79953 | 2.52514 | 36924 ft | 443 kts | 162° |
| 2026-05-06 17:24 | 47.74108 | 2.55382 | 36932 ft | 443 kts | 163° |
| 2026-05-06 17:25 | 47.68255 | 2.58253 | 36932 ft | 443 kts | 163° |
| 2026-05-06 17:25 | 47.62407 | 2.61125 | 36924 ft | 443 kts | 163° |
| 2026-05-06 17:26 | 47.56555 | 2.63984 | 36927 ft | 443 kts | 163° |
| 2026-05-06 17:26 | 47.50703 | 2.66837 | 36931 ft | 443 kts | 163° |
| 2026-05-06 17:27 | 47.44852 | 2.69684 | 36928 ft | 443 kts | 163° |
| 2026-05-06 17:27 | 47.38998 | 2.72524 | 36932 ft | 443 kts | 163° |
| 2026-05-06 17:28 | 47.33140 | 2.75368 | 36923 ft | 443 kts | 163° |
| 2026-05-06 17:28 | 47.27285 | 2.78195 | 36927 ft | 443 kts | 163° |
| 2026-05-06 17:29 | 47.21426 | 2.81011 | 36917 ft | 443 kts | 163° |
| 2026-05-06 17:29 | 47.15600 | 2.83803 | 36921 ft | 443 kts | 163° |
| 2026-05-06 17:30 | 47.09705 | 2.86627 | 36913 ft | 443 kts | 163° |
| 2026-05-06 17:30 | 47.03835 | 2.89430 | 36920 ft | 443 kts | 163° |
| 2026-05-06 17:31 | 46.98013 | 2.92208 | 36914 ft | 443 kts | 163° |
| 2026-05-06 17:31 | 46.92100 | 2.95021 | 36948 ft | 446 kts | 163° |
| 2026-05-06 17:32 | 46.86185 | 2.97824 | 36913 ft | 447 kts | 163° |
| 2026-05-06 17:32 | 46.80255 | 3.00633 | 36906 ft | 449 kts | 163° |
| 2026-05-06 17:33 | 46.74312 | 3.03449 | 36904 ft | 449 kts | 163° |
| 2026-05-06 17:33 | 46.68399 | 3.06235 | 36907 ft | 449 kts | 163° |
| 2026-05-06 17:34 | 46.62447 | 3.09031 | 36904 ft | 450 kts | 164° |
| 2026-05-06 17:34 | 46.56454 | 3.11841 | 36904 ft | 450 kts | 164° |
| 2026-05-06 17:35 | 46.50548 | 3.14714 | 36906 ft | 451 kts | 162° |
| 2026-05-06 17:35 | 46.44672 | 3.17924 | 36909 ft | 452 kts | 161° |
| 2026-05-06 17:36 | 46.35862 | 3.22804 | 36906 ft | 452 kts | 161° |
| 2026-05-06 17:36 | 46.29967 | 3.25966 | 36913 ft | 452 kts | 162° |
| 2026-05-06 17:37 | 46.24060 | 3.29095 | 36913 ft | 452 kts | 162° |
| 2026-05-06 17:37 | 46.18162 | 3.32234 | 36913 ft | 452 kts | 161° |
| 2026-05-06 17:38 | 46.12263 | 3.35382 | 36914 ft | 452 kts | 162° |
| 2026-05-06 17:38 | 46.06357 | 3.38520 | 36916 ft | 452 kts | 162° |
| 2026-05-06 17:39 | 46.00452 | 3.41645 | 36919 ft | 452 kts | 162° |
| 2026-05-06 17:39 | 45.94549 | 3.44764 | 36919 ft | 452 kts | 162° |
| 2026-05-06 17:40 | 45.88643 | 3.47876 | 36923 ft | 452 kts | 162° |
| 2026-05-06 17:40 | 45.82723 | 3.50844 | 36920 ft | 451 kts | 165° |
| 2026-05-06 17:41 | 45.76716 | 3.53406 | 36919 ft | 450 kts | 166° |
| 2026-05-06 17:41 | 45.70691 | 3.55858 | 36923 ft | 450 kts | 166° |
| 2026-05-06 17:42 | 45.64692 | 3.58378 | 36922 ft | 450 kts | 166° |
| 2026-05-06 17:42 | 45.58698 | 3.60961 | 36920 ft | 449 kts | 166° |
| 2026-05-06 17:43 | 45.52713 | 3.63538 | 36917 ft | 449 kts | 166° |
| 2026-05-06 17:43 | 45.46734 | 3.66101 | 36932 ft | 449 kts | 166° |
| 2026-05-06 17:44 | 45.40751 | 3.68655 | 36928 ft | 449 kts | 166° |
| 2026-05-06 17:44 | 45.34784 | 3.71186 | 36927 ft | 448 kts | 166° |
| 2026-05-06 17:45 | 45.29098 | 3.74897 | 36915 ft | 455 kts | 146° |
| 2026-05-06 17:45 | 45.26743 | 3.77917 | 36925 ft | 460 kts | 134° |
| 2026-05-06 17:45 | 45.24866 | 3.81596 | 36907 ft | 464 kts | 122° |
| 2026-05-06 17:46 | 45.23550 | 3.85788 | 36904 ft | 468 kts | 109° |
| 2026-05-06 17:46 | 45.22635 | 3.90241 | 36901 ft | 469 kts | 108° |
| 2026-05-06 17:46 | 45.20823 | 3.99124 | 36896 ft | 470 kts | 109° |
| 2026-05-06 17:47 | 45.18976 | 4.08012 | 36899 ft | 471 kts | 109° |
| 2026-05-06 17:47 | 45.17122 | 4.16919 | 36906 ft | 471 kts | 109° |
| 2026-05-06 17:48 | 45.15277 | 4.25837 | 36896 ft | 472 kts | 109° |
| 2026-05-06 17:48 | 45.13421 | 4.34754 | 36895 ft | 472 kts | 109° |
| 2026-05-06 17:49 | 45.10877 | 4.43227 | 36897 ft | 465 kts | 126° |
| 2026-05-06 17:49 | 45.06699 | 4.50040 | 36894 ft | 456 kts | 143° |
| 2026-05-06 17:50 | 45.01834 | 4.55785 | 36904 ft | 456 kts | 144° |
| 2026-05-06 17:50 | 44.96964 | 4.61514 | 36897 ft | 456 kts | 144° |
| 2026-05-06 17:51 | 44.92086 | 4.67236 | 36876 ft | 456 kts | 144° |
| 2026-05-06 17:51 | 44.89644 | 4.70093 | 36610 ft | 456 kts | 144° |
| 2026-05-06 17:51 | 44.87204 | 4.72950 | 36355 ft | 456 kts | 144° |
| 2026-05-06 17:52 | 44.84765 | 4.75804 | 36108 ft | 456 kts | 144° |
| 2026-05-06 17:52 | 44.82315 | 4.78662 | 35856 ft | 456 kts | 144° |
| 2026-05-06 17:52 | 44.79874 | 4.81502 | 35603 ft | 457 kts | 145° |
| 2026-05-06 17:52 | 44.77421 | 4.84358 | 35074 ft | 458 kts | 145° |
| 2026-05-06 17:53 | 44.74912 | 4.87087 | 34523 ft | 453 kts | 152° |
| 2026-05-06 17:53 | 44.73122 | 4.88573 | 34171 ft | 448 kts | 158° |
| 2026-05-06 17:53 | 44.70271 | 4.90260 | 33583 ft | 441 kts | 167° |
| 2026-05-06 17:53 | 44.67315 | 4.91272 | 32964 ft | 435 kts | 176° |
| 2026-05-06 17:54 | 44.64328 | 4.91950 | 32351 ft | 435 kts | 176° |
| 2026-05-06 17:54 | 44.61330 | 4.92641 | 31754 ft | 436 kts | 176° |
| 2026-05-06 17:54 | 44.58341 | 4.93344 | 31168 ft | 436 kts | 175° |
| 2026-05-06 17:54 | 44.55348 | 4.94052 | 30594 ft | 437 kts | 176° |
| 2026-05-06 17:55 | 44.52348 | 4.94760 | 30031 ft | 437 kts | 176° |
| 2026-05-06 17:55 | 44.49358 | 4.95464 | 29371 ft | 435 kts | 176° |
| 2026-05-06 17:55 | 44.46390 | 4.96161 | 28715 ft | 432 kts | 176° |
| 2026-05-06 17:55 | 44.43432 | 4.96852 | 28069 ft | 428 kts | 176° |
| 2026-05-06 17:56 | 44.40503 | 4.97535 | 27437 ft | 425 kts | 176° |
| 2026-05-06 17:56 | 44.37600 | 4.98210 | 26823 ft | 422 kts | 176° |
| 2026-05-06 17:56 | 44.34716 | 4.98877 | 26228 ft | 419 kts | 175° |
| 2026-05-06 17:56 | 44.31856 | 4.99534 | 25641 ft | 416 kts | 175° |
| 2026-05-06 17:57 | 44.29000 | 5.00186 | 25056 ft | 413 kts | 175° |
| 2026-05-06 17:57 | 44.26176 | 5.00834 | 24496 ft | 411 kts | 175° |
| 2026-05-06 17:57 | 44.23361 | 5.01482 | 23948 ft | 409 kts | 175° |
| 2026-05-06 17:57 | 44.20564 | 5.02129 | 23389 ft | 407 kts | 175° |
| 2026-05-06 17:58 | 44.19978 | 5.02265 | 23258 ft | 407 kts | 175° |
| 2026-05-06 17:59 | 44.18022 | 5.02728 | 22811 ft | 405 kts | 174° |
| 2026-05-06 17:59 | 44.15244 | 5.03377 | 22170 ft | 402 kts | 174° |
| 2026-05-06 17:59 | 44.12489 | 5.04011 | 21529 ft | 400 kts | 174° |
| 2026-05-06 17:59 | 44.09743 | 5.04637 | 20707 ft | 400 kts | 174° |
| 2026-05-06 18:00 | 44.07012 | 5.05256 | 19915 ft | 395 kts | 174° |
| 2026-05-06 18:00 | 44.04310 | 5.05869 | 19149 ft | 392 kts | 174° |
| 2026-05-06 18:00 | 44.01627 | 5.06485 | 18399 ft | 388 kts | 174° |
| 2026-05-06 18:00 | 43.98982 | 5.07093 | 17582 ft | 384 kts | 174° |
| 2026-05-06 18:01 | 43.96383 | 5.07691 | 17023 ft | 373 kts | 174° |
| 2026-05-06 18:01 | 43.93863 | 5.08272 | 16556 ft | 364 kts | 174° |
| 2026-05-06 18:01 | 43.91383 | 5.08840 | 16086 ft | 358 kts | 174° |
| 2026-05-06 18:01 | 43.88935 | 5.09407 | 15622 ft | 354 kts | 172° |
| 2026-05-06 18:02 | 43.86581 | 5.10364 | 15170 ft | 352 kts | 164° |
| 2026-05-06 18:02 | 43.84649 | 5.11288 | 14799 ft | 349 kts | 164° |
| 2026-05-06 18:02 | 43.82354 | 5.12380 | 14353 ft | 345 kts | 164° |
| 2026-05-06 18:02 | 43.80089 | 5.13451 | 13915 ft | 342 kts | 164° |
| 2026-05-06 18:03 | 43.77843 | 5.14508 | 13477 ft | 339 kts | 164° |
| 2026-05-06 18:03 | 43.75618 | 5.15554 | 13004 ft | 336 kts | 164° |
| 2026-05-06 18:03 | 43.73417 | 5.16595 | 12582 ft | 332 kts | 164° |
| 2026-05-06 18:03 | 43.71247 | 5.17625 | 12164 ft | 328 kts | 164° |
| 2026-05-06 18:04 | 43.69096 | 5.18628 | 11750 ft | 325 kts | 165° |
| 2026-05-06 18:04 | 43.66953 | 5.19596 | 11346 ft | 322 kts | 165° |
| 2026-05-06 18:04 | 43.64829 | 5.20541 | 10946 ft | 320 kts | 165° |
| 2026-05-06 18:04 | 43.62721 | 5.21476 | 10543 ft | 317 kts | 165° |
| 2026-05-06 18:05 | 43.60627 | 5.22406 | 10158 ft | 315 kts | 165° |
| 2026-05-06 18:05 | 43.58516 | 5.23157 | 9764 ft | 311 kts | 175° |
| 2026-05-06 18:05 | 43.56382 | 5.23216 | 9328 ft | 301 kts | 188° |
| 2026-05-06 18:05 | 43.54331 | 5.22957 | 8909 ft | 292 kts | 188° |
| 2026-05-06 18:06 | 43.52325 | 5.22716 | 8505 ft | 289 kts | 188° |
| 2026-05-06 18:06 | 43.50317 | 5.22479 | 8092 ft | 290 kts | 187° |
| 2026-05-06 18:06 | 43.48307 | 5.22244 | 7683 ft | 290 kts | 188° |
| 2026-05-06 18:06 | 43.46296 | 5.22006 | 7277 ft | 290 kts | 187° |
| 2026-05-06 18:07 | 43.44279 | 5.21766 | 6883 ft | 291 kts | 187° |
| 2026-05-06 18:07 | 43.42268 | 5.21530 | 6490 ft | 290 kts | 187° |
| 2026-05-06 18:07 | 43.40255 | 5.21296 | 6076 ft | 287 kts | 187° |
| 2026-05-06 18:07 | 43.38292 | 5.21067 | 5665 ft | 280 kts | 187° |
| 2026-05-06 18:08 | 43.36348 | 5.20838 | 5259 ft | 281 kts | 187° |
| 2026-05-06 18:08 | 43.34401 | 5.20607 | 4860 ft | 282 kts | 187° |
| 2026-05-06 18:08 | 43.32448 | 5.20375 | 4450 ft | 282 kts | 187° |
| 2026-05-06 18:08 | 43.30492 | 5.20144 | 4013 ft | 280 kts | 186° |
| 2026-05-06 18:09 | 43.28600 | 5.20349 | 3611 ft | 274 kts | 168° |
| 2026-05-06 18:09 | 43.26866 | 5.21347 | 3385 ft | 262 kts | 150° |
| 2026-05-06 18:09 | 43.25443 | 5.22809 | 3162 ft | 249 kts | 143° |
| 2026-05-06 18:09 | 43.24091 | 5.24257 | 2945 ft | 245 kts | 144° |
| 2026-05-06 18:10 | 43.22981 | 5.25955 | 2718 ft | 245 kts | 118° |
| 2026-05-06 18:10 | 43.22557 | 5.28193 | 2608 ft | 245 kts | 90° |
| 2026-05-06 18:10 | 43.22911 | 5.30487 | 2613 ft | 244 kts | 62° |
| 2026-05-06 18:10 | 43.23920 | 5.32252 | 2605 ft | 237 kts | 34° |
| 2026-05-06 18:11 | 43.25371 | 5.33220 | 2618 ft | 231 kts | 8° |
| 2026-05-06 18:11 | 43.26941 | 5.33263 | 2616 ft | 226 kts | 349° |
| 2026-05-06 18:11 | 43.28508 | 5.32994 | 2616 ft | 227 kts | 349° |
| 2026-05-06 18:11 | 43.30091 | 5.32819 | 2606 ft | 230 kts | 355° |
| 2026-05-06 18:12 | 43.31688 | 5.32790 | 2616 ft | 229 kts | 355° |
| 2026-05-06 18:12 | 43.33276 | 5.32752 | 2610 ft | 228 kts | 355° |
| 2026-05-06 18:12 | 43.34832 | 5.32631 | 2602 ft | 215 kts | 344° |
| 2026-05-06 18:12 | 43.36142 | 5.31937 | 2559 ft | 192 kts | 324° |
| 2026-05-06 18:13 | 43.37126 | 5.30803 | 2325 ft | 180 kts | 310° |
| 2026-05-06 18:13 | 43.37976 | 5.29597 | 2015 ft | 171 kts | 310° |
| 2026-05-06 18:13 | 43.38778 | 5.28457 | 1734 ft | 163 kts | 310° |
| 2026-05-06 18:13 | 43.39558 | 5.27349 | 1441 ft | 158 kts | 310° |
| 2026-05-06 18:14 | 43.40281 | 5.26325 | 1160 ft | 141 kts | 309° |
| 2026-05-06 18:14 | 43.40954 | 5.25368 | 907 ft | 137 kts | 308° |
| 2026-05-06 18:14 | 43.41629 | 5.24407 | 668 ft | 143 kts | 309° |
| 2026-05-06 18:14 | 43.42310 | 5.23450 | 392 ft | 136 kts | 309° |
| 2026-05-06 18:15 | 43.43010 | 5.22434 | 154 ft | 152 kts | 308° |
| 2026-05-06 18:15 | 43.43669 | 5.21487 | 40 ft | 107 kts | 313° |
| 2026-05-06 18:15 | 43.44083 | 5.20897 | 27 ft | 59 kts | 314° |
| 2026-05-06 18:15 | 43.44252 | 5.20759 | 25 ft | 11 kts | 20° |
| 2026-05-06 18:16 | 43.44293 | 5.20796 | 23 ft | 2 kts | 47° |
| 2026-05-06 18:16 | 43.44306 | 5.20845 | 21 ft | 8 kts | 83° |
| 2026-05-06 18:16 | 43.44290 | 5.20930 | 20 ft | 11 kts | 116° |
| 2026-05-06 18:16 | 43.44243 | 5.21023 | 20 ft | 13 kts | 129° |
| 2026-05-06 18:17 | 43.44178 | 5.21117 | 23 ft | 13 kts | 135° |
| 2026-05-06 18:17 | 43.44108 | 5.21211 | 25 ft | 15 kts | 137° |
| 2026-05-06 18:17 | 43.44035 | 5.21316 | 26 ft | 16 kts | 134° |
| 2026-05-06 18:17 | 43.43956 | 5.21428 | 29 ft | 17 kts | 130° |
| 2026-05-06 18:18 | 43.43930 | 5.21555 | 33 ft | 12 kts | 72° |
| 2026-05-06 18:18 | 43.43967 | 5.21621 | 40 ft | 7 kts | 48° |
| 2026-05-06 18:18 | 43.43972 | 5.21709 | 41 ft | 11 kts | 116° |
| 2026-05-06 18:18 | 43.43919 | 5.21788 | 43 ft | 10 kts | 134° |
| 2026-05-06 18:19 | 43.43867 | 5.21862 | 44 ft | 11 kts | 134° |
| 2026-05-06 18:19 | 43.43804 | 5.21953 | 45 ft | 15 kts | 134° |
| 2026-05-06 18:19 | 43.43719 | 5.22046 | 48 ft | 16 kts | 146° |
| 2026-05-06 18:19 | 43.43717 | 5.22174 | 50 ft | 14 kts | 48° |
| 2026-05-06 18:20 | 43.43735 | 5.22259 | 53 ft | 9 kts | 102° |
| 2026-05-06 18:20 | 43.43738 | 5.22360 | 54 ft | 14 kts | 73° |
| 2026-05-06 18:20 | 43.43765 | 5.22485 | 55 ft | 13 kts | 64° |
| 2026-05-06 18:20 | 43.43817 | 5.22529 | 55 ft | 9 kts | 340° |
| 2026-05-06 18:21 | 43.43849 | 5.22484 | 53 ft | 3 kts | 308° |
| 2026-05-06 18:21 | 43.43856 | 5.22471 | 53 ft | 2 kts | 308° |
| 2026-05-06 18:21 | 43.43857 | 5.22470 | 53 ft | 0 kts | 308° |